sensor_id;sensor_type;location;lat;lon;timestamp;P1;durP1;ratioP1;P2;durP2;ratioP2
5704;SDS011;2877;48.238;11.160;2023-08-30T00:02:23;18.63;;;14.17;;
5704;SDS011;2877;48.238;11.160;2023-08-30T00:04:48;18.93;;;14.80;;
5704;SDS011;2877;48.238;11.160;2023-08-30T00:07:14;24.20;;;15.50;;
5704;SDS011;2877;48.238;11.160;2023-08-30T00:09:40;18.10;;;14.03;;
5704;SDS011;2877;48.238;11.160;2023-08-30T00:12:05;20.53;;;13.73;;
5704;SDS011;2877;48.238;11.160;2023-08-30T00:14:31;19.40;;;14.80;;
5704;SDS011;2877;48.238;11.160;2023-08-30T00:16:57;22.60;;;14.30;;
5704;SDS011;2877;48.238;11.160;2023-08-30T00:19:23;21.03;;;15.43;;
5704;SDS011;2877;48.238;11.160;2023-08-30T00:21:48;16.27;;;13.10;;
5704;SDS011;2877;48.238;11.160;2023-08-30T00:24:14;18.33;;;13.47;;
5704;SDS011;2877;48.238;11.160;2023-08-30T00:26:39;18.47;;;13.87;;
5704;SDS011;2877;48.238;11.160;2023-08-30T00:29:05;16.07;;;12.60;;
5704;SDS011;2877;48.238;11.160;2023-08-30T00:31:30;15.77;;;12.53;;
5704;SDS011;2877;48.238;11.160;2023-08-30T00:33:56;16.53;;;12.90;;
5704;SDS011;2877;48.238;11.160;2023-08-30T00:36:21;16.07;;;12.13;;
5704;SDS011;2877;48.238;11.160;2023-08-30T00:38:47;17.00;;;12.37;;
5704;SDS011;2877;48.238;11.160;2023-08-30T00:41:12;15.90;;;12.20;;
5704;SDS011;2877;48.238;11.160;2023-08-30T00:43:38;18.33;;;11.47;;
5704;SDS011;2877;48.238;11.160;2023-08-30T00:46:04;15.30;;;11.63;;
5704;SDS011;2877;48.238;11.160;2023-08-30T00:48:30;14.20;;;10.53;;
5704;SDS011;2877;48.238;11.160;2023-08-30T00:50:55;16.07;;;11.67;;
5704;SDS011;2877;48.238;11.160;2023-08-30T00:53:21;15.00;;;11.23;;
5704;SDS011;2877;48.238;11.160;2023-08-30T00:55:47;15.53;;;12.27;;
5704;SDS011;2877;48.238;11.160;2023-08-30T00:58:12;12.97;;;10.60;;
5704;SDS011;2877;48.238;11.160;2023-08-30T01:00:38;14.80;;;12.23;;
5704;SDS011;2877;48.238;11.160;2023-08-30T01:03:05;14.17;;;11.40;;
5704;SDS011;2877;48.238;11.160;2023-08-30T01:05:32;15.60;;;11.57;;
5704;SDS011;2877;48.238;11.160;2023-08-30T01:07:58;14.93;;;11.30;;
5704;SDS011;2877;48.238;11.160;2023-08-30T01:13:56;15.60;;;12.43;;
5704;SDS011;2877;48.238;11.160;2023-08-30T01:16:34;13.90;;;11.67;;
5704;SDS011;2877;48.238;11.160;2023-08-30T01:19:01;12.77;;;11.23;;
5704;SDS011;2877;48.238;11.160;2023-08-30T01:21:43;14.60;;;11.30;;
5704;SDS011;2877;48.238;11.160;2023-08-30T01:24:48;16.47;;;12.17;;
5704;SDS011;2877;48.238;11.160;2023-08-30T01:27:29;21.73;;;12.23;;
5704;SDS011;2877;48.238;11.160;2023-08-30T01:29:57;11.93;;;10.17;;
5704;SDS011;2877;48.238;11.160;2023-08-30T01:32:23;14.57;;;11.60;;
5704;SDS011;2877;48.238;11.160;2023-08-30T01:34:51;16.17;;;12.23;;
5704;SDS011;2877;48.238;11.160;2023-08-30T01:37:17;13.87;;;11.40;;
5704;SDS011;2877;48.238;11.160;2023-08-30T01:39:43;15.90;;;12.00;;
5704;SDS011;2877;48.238;11.160;2023-08-30T01:42:10;15.80;;;10.83;;
5704;SDS011;2877;48.238;11.160;2023-08-30T01:44:39;14.30;;;11.23;;
5704;SDS011;2877;48.238;11.160;2023-08-30T01:47:07;14.57;;;11.70;;
5704;SDS011;2877;48.238;11.160;2023-08-30T01:49:33;13.23;;;10.57;;
5704;SDS011;2877;48.238;11.160;2023-08-30T01:51:59;15.07;;;12.40;;
5704;SDS011;2877;48.238;11.160;2023-08-30T01:54:25;16.00;;;11.60;;
5704;SDS011;2877;48.238;11.160;2023-08-30T01:56:53;14.13;;;11.30;;
5704;SDS011;2877;48.238;11.160;2023-08-30T01:59:19;15.40;;;11.60;;
5704;SDS011;2877;48.238;11.160;2023-08-30T02:01:44;15.10;;;11.40;;
5704;SDS011;2877;48.238;11.160;2023-08-30T02:04:10;14.03;;;11.70;;
5704;SDS011;2877;48.238;11.160;2023-08-30T02:06:39;15.40;;;12.50;;
5704;SDS011;2877;48.238;11.160;2023-08-30T02:09:24;13.80;;;11.60;;
5704;SDS011;2877;48.238;11.160;2023-08-30T02:12:04;16.50;;;13.17;;
5704;SDS011;2877;48.238;11.160;2023-08-30T02:14:34;14.80;;;11.83;;
5704;SDS011;2877;48.238;11.160;2023-08-30T02:17:01;16.43;;;12.67;;
5704;SDS011;2877;48.238;11.160;2023-08-30T02:19:28;14.77;;;11.53;;
5704;SDS011;2877;48.238;11.160;2023-08-30T02:21:53;16.17;;;12.73;;
5704;SDS011;2877;48.238;11.160;2023-08-30T02:24:19;16.03;;;11.90;;
5704;SDS011;2877;48.238;11.160;2023-08-30T02:26:44;16.57;;;11.67;;
5704;SDS011;2877;48.238;11.160;2023-08-30T02:29:10;13.87;;;11.13;;
5704;SDS011;2877;48.238;11.160;2023-08-30T02:31:38;15.50;;;11.17;;
5704;SDS011;2877;48.238;11.160;2023-08-30T02:34:03;17.43;;;13.13;;
5704;SDS011;2877;48.238;11.160;2023-08-30T02:36:29;14.50;;;11.83;;
5704;SDS011;2877;48.238;11.160;2023-08-30T02:38:54;14.03;;;11.73;;
5704;SDS011;2877;48.238;11.160;2023-08-30T02:41:20;16.40;;;11.80;;
5704;SDS011;2877;48.238;11.160;2023-08-30T02:43:45;19.33;;;11.40;;
5704;SDS011;2877;48.238;11.160;2023-08-30T02:46:11;14.47;;;11.83;;
5704;SDS011;2877;48.238;11.160;2023-08-30T02:48:36;12.43;;;10.60;;
5704;SDS011;2877;48.238;11.160;2023-08-30T02:51:02;14.70;;;11.40;;
5704;SDS011;2877;48.238;11.160;2023-08-30T02:53:28;14.90;;;11.60;;
5704;SDS011;2877;48.238;11.160;2023-08-30T02:55:53;15.53;;;11.30;;
5704;SDS011;2877;48.238;11.160;2023-08-30T02:58:20;15.83;;;10.67;;
5704;SDS011;2877;48.238;11.160;2023-08-30T03:00:46;13.50;;;11.00;;
5704;SDS011;2877;48.238;11.160;2023-08-30T03:03:12;14.50;;;11.07;;
5704;SDS011;2877;48.238;11.160;2023-08-30T03:05:37;13.20;;;10.57;;
5704;SDS011;2877;48.238;11.160;2023-08-30T03:08:03;12.97;;;10.47;;
5704;SDS011;2877;48.238;11.160;2023-08-30T03:10:29;16.23;;;10.90;;
5704;SDS011;2877;48.238;11.160;2023-08-30T03:12:54;12.37;;;10.33;;
5704;SDS011;2877;48.238;11.160;2023-08-30T03:15:20;13.70;;;10.20;;
5704;SDS011;2877;48.238;11.160;2023-08-30T03:17:45;14.10;;;11.10;;
5704;SDS011;2877;48.238;11.160;2023-08-30T03:20:11;13.73;;;10.53;;
5704;SDS011;2877;48.238;11.160;2023-08-30T03:22:37;11.70;;;9.70;;
5704;SDS011;2877;48.238;11.160;2023-08-30T03:25:02;13.20;;;10.93;;
5704;SDS011;2877;48.238;11.160;2023-08-30T03:27:28;15.13;;;11.30;;
5704;SDS011;2877;48.238;11.160;2023-08-30T03:29:54;11.20;;;10.00;;
5704;SDS011;2877;48.238;11.160;2023-08-30T03:32:21;13.80;;;10.27;;
5704;SDS011;2877;48.238;11.160;2023-08-30T03:34:47;12.07;;;10.20;;
5704;SDS011;2877;48.238;11.160;2023-08-30T03:37:16;12.57;;;10.73;;
5704;SDS011;2877;48.238;11.160;2023-08-30T03:39:42;13.20;;;10.80;;
5704;SDS011;2877;48.238;11.160;2023-08-30T03:42:08;11.93;;;9.57;;
5704;SDS011;2877;48.238;11.160;2023-08-30T03:44:34;12.67;;;10.37;;
5704;SDS011;2877;48.238;11.160;2023-08-30T03:47:00;10.93;;;9.20;;
5704;SDS011;2877;48.238;11.160;2023-08-30T03:49:26;12.27;;;10.03;;
5704;SDS011;2877;48.238;11.160;2023-08-30T03:51:51;10.00;;;8.90;;
5704;SDS011;2877;48.238;11.160;2023-08-30T03:54:17;12.63;;;11.23;;
5704;SDS011;2877;48.238;11.160;2023-08-30T03:56:43;11.90;;;10.37;;
5704;SDS011;2877;48.238;11.160;2023-08-30T03:59:09;12.27;;;9.90;;
5704;SDS011;2877;48.238;11.160;2023-08-30T04:01:35;13.63;;;10.20;;
5704;SDS011;2877;48.238;11.160;2023-08-30T04:04:00;10.60;;;9.07;;
5704;SDS011;2877;48.238;11.160;2023-08-30T04:06:26;15.80;;;9.60;;
5704;SDS011;2877;48.238;11.160;2023-08-30T04:08:51;12.70;;;10.03;;
5704;SDS011;2877;48.238;11.160;2023-08-30T04:11:17;11.97;;;9.80;;
5704;SDS011;2877;48.238;11.160;2023-08-30T04:13:42;13.17;;;9.43;;
5704;SDS011;2877;48.238;11.160;2023-08-30T04:16:08;12.20;;;10.13;;
5704;SDS011;2877;48.238;11.160;2023-08-30T04:18:34;11.97;;;9.17;;
5704;SDS011;2877;48.238;11.160;2023-08-30T04:20:59;11.30;;;9.60;;
5704;SDS011;2877;48.238;11.160;2023-08-30T04:23:27;15.27;;;9.50;;
5704;SDS011;2877;48.238;11.160;2023-08-30T04:25:53;10.17;;;8.93;;
5704;SDS011;2877;48.238;11.160;2023-08-30T04:28:19;12.43;;;9.50;;
5704;SDS011;2877;48.238;11.160;2023-08-30T04:30:45;11.00;;;9.20;;
5704;SDS011;2877;48.238;11.160;2023-08-30T04:33:10;11.60;;;10.00;;
5704;SDS011;2877;48.238;11.160;2023-08-30T04:35:36;12.33;;;9.93;;
5704;SDS011;2877;48.238;11.160;2023-08-30T04:38:02;10.30;;;9.20;;
5704;SDS011;2877;48.238;11.160;2023-08-30T04:40:28;12.47;;;9.90;;
5704;SDS011;2877;48.238;11.160;2023-08-30T04:42:55;14.07;;;10.10;;
5704;SDS011;2877;48.238;11.160;2023-08-30T04:45:21;9.70;;;8.70;;
5704;SDS011;2877;48.238;11.160;2023-08-30T04:47:47;12.00;;;9.40;;
5704;SDS011;2877;48.238;11.160;2023-08-30T04:50:12;14.73;;;10.00;;
5704;SDS011;2877;48.238;11.160;2023-08-30T04:52:38;12.10;;;10.00;;
5704;SDS011;2877;48.238;11.160;2023-08-30T04:55:04;12.70;;;9.87;;
5704;SDS011;2877;48.238;11.160;2023-08-30T04:57:30;10.83;;;9.50;;
5704;SDS011;2877;48.238;11.160;2023-08-30T04:59:56;11.60;;;9.53;;
5704;SDS011;2877;48.238;11.160;2023-08-30T05:02:22;20.40;;;10.53;;
5704;SDS011;2877;48.238;11.160;2023-08-30T05:04:48;11.80;;;10.33;;
5704;SDS011;2877;48.238;11.160;2023-08-30T05:07:13;12.97;;;10.50;;
5704;SDS011;2877;48.238;11.160;2023-08-30T05:09:39;12.97;;;10.33;;
5704;SDS011;2877;48.238;11.160;2023-08-30T05:12:05;13.87;;;10.77;;
5704;SDS011;2877;48.238;11.160;2023-08-30T05:14:32;11.97;;;10.37;;
5704;SDS011;2877;48.238;11.160;2023-08-30T05:16:57;13.47;;;10.73;;
5704;SDS011;2877;48.238;11.160;2023-08-30T05:19:23;14.57;;;11.23;;
5704;SDS011;2877;48.238;11.160;2023-08-30T05:21:48;14.70;;;10.90;;
5704;SDS011;2877;48.238;11.160;2023-08-30T05:24:16;12.10;;;10.20;;
5704;SDS011;2877;48.238;11.160;2023-08-30T05:26:42;14.53;;;10.47;;
5704;SDS011;2877;48.238;11.160;2023-08-30T05:29:07;13.10;;;11.03;;
5704;SDS011;2877;48.238;11.160;2023-08-30T05:31:33;13.20;;;10.63;;
5704;SDS011;2877;48.238;11.160;2023-08-30T05:33:58;14.00;;;11.20;;
5704;SDS011;2877;48.238;11.160;2023-08-30T05:36:24;13.23;;;10.63;;
5704;SDS011;2877;48.238;11.160;2023-08-30T05:38:49;15.30;;;11.30;;
5704;SDS011;2877;48.238;11.160;2023-08-30T05:41:15;12.80;;;10.43;;
5704;SDS011;2877;48.238;11.160;2023-08-30T05:43:40;16.03;;;11.40;;
5704;SDS011;2877;48.238;11.160;2023-08-30T05:46:06;14.33;;;11.13;;
5704;SDS011;2877;48.238;11.160;2023-08-30T05:48:37;15.37;;;11.10;;
5704;SDS011;2877;48.238;11.160;2023-08-30T05:51:02;14.30;;;11.60;;
5704;SDS011;2877;48.238;11.160;2023-08-30T05:53:28;14.13;;;10.90;;
5704;SDS011;2877;48.238;11.160;2023-08-30T05:55:54;13.83;;;11.00;;
5704;SDS011;2877;48.238;11.160;2023-08-30T05:58:19;14.00;;;11.47;;
5704;SDS011;2877;48.238;11.160;2023-08-30T06:00:45;12.70;;;10.80;;
5704;SDS011;2877;48.238;11.160;2023-08-30T06:03:10;14.13;;;10.77;;
5704;SDS011;2877;48.238;11.160;2023-08-30T06:05:36;14.43;;;12.17;;
5704;SDS011;2877;48.238;11.160;2023-08-30T06:08:02;13.37;;;11.50;;
5704;SDS011;2877;48.238;11.160;2023-08-30T06:10:27;13.67;;;10.27;;
5704;SDS011;2877;48.238;11.160;2023-08-30T06:12:53;14.77;;;11.70;;
5704;SDS011;2877;48.238;11.160;2023-08-30T06:15:19;12.70;;;10.70;;
5704;SDS011;2877;48.238;11.160;2023-08-30T06:17:44;11.70;;;9.17;;
5704;SDS011;2877;48.238;11.160;2023-08-30T06:20:11;15.17;;;11.17;;
5704;SDS011;2877;48.238;11.160;2023-08-30T06:22:37;12.77;;;10.40;;
5704;SDS011;2877;48.238;11.160;2023-08-30T06:25:03;12.20;;;9.90;;
5704;SDS011;2877;48.238;11.160;2023-08-30T06:27:29;12.43;;;10.40;;
5704;SDS011;2877;48.238;11.160;2023-08-30T06:29:55;11.67;;;9.90;;
5704;SDS011;2877;48.238;11.160;2023-08-30T06:32:20;12.37;;;10.37;;
5704;SDS011;2877;48.238;11.160;2023-08-30T06:34:46;13.20;;;11.30;;
5704;SDS011;2877;48.238;11.160;2023-08-30T06:37:11;17.53;;;11.23;;
5704;SDS011;2877;48.238;11.160;2023-08-30T06:39:37;11.50;;;9.53;;
5704;SDS011;2877;48.238;11.160;2023-08-30T06:42:03;12.20;;;10.67;;
5704;SDS011;2877;48.238;11.160;2023-08-30T06:44:29;11.90;;;10.43;;
5704;SDS011;2877;48.238;11.160;2023-08-30T06:46:55;11.30;;;9.50;;
5704;SDS011;2877;48.238;11.160;2023-08-30T06:49:21;10.83;;;9.63;;
5704;SDS011;2877;48.238;11.160;2023-08-30T06:51:47;12.00;;;9.50;;
5704;SDS011;2877;48.238;11.160;2023-08-30T06:54:13;12.03;;;9.53;;
5704;SDS011;2877;48.238;11.160;2023-08-30T06:56:39;10.27;;;9.17;;
5704;SDS011;2877;48.238;11.160;2023-08-30T06:59:04;10.33;;;9.00;;
5704;SDS011;2877;48.238;11.160;2023-08-30T07:01:30;12.40;;;10.40;;
5704;SDS011;2877;48.238;11.160;2023-08-30T07:03:56;10.40;;;9.30;;
5704;SDS011;2877;48.238;11.160;2023-08-30T07:06:21;13.50;;;9.87;;
5704;SDS011;2877;48.238;11.160;2023-08-30T07:08:47;11.40;;;9.77;;
5704;SDS011;2877;48.238;11.160;2023-08-30T07:11:12;10.83;;;9.63;;
5704;SDS011;2877;48.238;11.160;2023-08-30T07:13:38;16.00;;;10.17;;
5704;SDS011;2877;48.238;11.160;2023-08-30T07:16:03;10.50;;;9.40;;
5704;SDS011;2877;48.238;11.160;2023-08-30T07:18:29;10.20;;;9.17;;
5704;SDS011;2877;48.238;11.160;2023-08-30T07:20:54;12.97;;;10.07;;
5704;SDS011;2877;48.238;11.160;2023-08-30T07:23:20;10.40;;;9.40;;
5704;SDS011;2877;48.238;11.160;2023-08-30T07:25:45;9.33;;;8.43;;
5704;SDS011;2877;48.238;11.160;2023-08-30T07:28:11;9.50;;;8.50;;
5704;SDS011;2877;48.238;11.160;2023-08-30T07:30:36;11.57;;;9.67;;
5704;SDS011;2877;48.238;11.160;2023-08-30T07:33:03;10.43;;;9.33;;
5704;SDS011;2877;48.238;11.160;2023-08-30T07:35:29;12.40;;;10.87;;
5704;SDS011;2877;48.238;11.160;2023-08-30T07:37:55;12.57;;;9.47;;
5704;SDS011;2877;48.238;11.160;2023-08-30T07:40:21;11.33;;;10.07;;
5704;SDS011;2877;48.238;11.160;2023-08-30T07:42:51;12.13;;;10.00;;
5704;SDS011;2877;48.238;11.160;2023-08-30T07:45:17;11.30;;;10.20;;
5704;SDS011;2877;48.238;11.160;2023-08-30T07:47:42;11.60;;;9.43;;
5704;SDS011;2877;48.238;11.160;2023-08-30T07:50:08;12.17;;;10.80;;
5704;SDS011;2877;48.238;11.160;2023-08-30T07:52:34;11.63;;;9.17;;
5704;SDS011;2877;48.238;11.160;2023-08-30T07:54:59;11.20;;;10.10;;
5704;SDS011;2877;48.238;11.160;2023-08-30T07:57:25;10.73;;;9.37;;
5704;SDS011;2877;48.238;11.160;2023-08-30T07:59:50;11.20;;;9.27;;
5704;SDS011;2877;48.238;11.160;2023-08-30T08:02:17;10.23;;;9.00;;
5704;SDS011;2877;48.238;11.160;2023-08-30T08:04:43;9.70;;;8.70;;
5704;SDS011;2877;48.238;11.160;2023-08-30T08:07:08;9.90;;;8.90;;
5704;SDS011;2877;48.238;11.160;2023-08-30T08:09:34;8.67;;;7.87;;
5704;SDS011;2877;48.238;11.160;2023-08-30T08:11:59;8.70;;;7.90;;
5704;SDS011;2877;48.238;11.160;2023-08-30T08:14:25;9.80;;;8.70;;
5704;SDS011;2877;48.238;11.160;2023-08-30T08:16:51;8.70;;;7.80;;
5704;SDS011;2877;48.238;11.160;2023-08-30T08:19:17;8.27;;;7.37;;
5704;SDS011;2877;48.238;11.160;2023-08-30T08:21:42;8.90;;;8.00;;
5704;SDS011;2877;48.238;11.160;2023-08-30T08:24:08;7.83;;;7.10;;
5704;SDS011;2877;48.238;11.160;2023-08-30T08:26:33;7.07;;;6.37;;
5704;SDS011;2877;48.238;11.160;2023-08-30T08:28:59;7.37;;;6.67;;
5704;SDS011;2877;48.238;11.160;2023-08-30T08:34:18;7.60;;;6.80;;
5704;SDS011;2877;48.238;11.160;2023-08-30T08:36:44;6.90;;;6.30;;
5704;SDS011;2877;48.238;11.160;2023-08-30T08:39:09;7.10;;;6.13;;
5704;SDS011;2877;48.238;11.160;2023-08-30T08:41:39;6.30;;;5.80;;
5704;SDS011;2877;48.238;11.160;2023-08-30T08:44:09;6.80;;;6.20;;
5704;SDS011;2877;48.238;11.160;2023-08-30T08:46:37;6.70;;;6.10;;
5704;SDS011;2877;48.238;11.160;2023-08-30T08:49:16;6.97;;;6.37;;
5704;SDS011;2877;48.238;11.160;2023-08-30T08:51:42;7.00;;;6.40;;
5704;SDS011;2877;48.238;11.160;2023-08-30T08:54:09;6.63;;;6.00;;
5704;SDS011;2877;48.238;11.160;2023-08-30T08:56:36;7.00;;;6.30;;
5704;SDS011;2877;48.238;11.160;2023-08-30T08:59:03;6.23;;;5.63;;
5704;SDS011;2877;48.238;11.160;2023-08-30T09:01:30;7.23;;;5.97;;
5704;SDS011;2877;48.238;11.160;2023-08-30T09:03:58;6.73;;;6.13;;
5704;SDS011;2877;48.238;11.160;2023-08-30T09:06:24;6.83;;;6.13;;
5704;SDS011;2877;48.238;11.160;2023-08-30T09:08:50;6.10;;;5.53;;
5704;SDS011;2877;48.238;11.160;2023-08-30T09:24:37;7.37;;;6.60;;
5704;SDS011;2877;48.238;11.160;2023-08-30T09:27:04;7.60;;;5.90;;
5704;SDS011;2877;48.238;11.160;2023-08-30T09:29:30;6.53;;;5.90;;
5704;SDS011;2877;48.238;11.160;2023-08-30T09:31:56;7.73;;;5.90;;
5704;SDS011;2877;48.238;11.160;2023-08-30T09:34:25;9.23;;;6.77;;
5704;SDS011;2877;48.238;11.160;2023-08-30T09:36:52;7.23;;;5.77;;
5704;SDS011;2877;48.238;11.160;2023-08-30T09:39:18;5.77;;;5.17;;
5704;SDS011;2877;48.238;11.160;2023-08-30T09:41:44;7.50;;;5.03;;
5704;SDS011;2877;48.238;11.160;2023-08-30T09:44:14;6.80;;;6.10;;
5704;SDS011;2877;48.238;11.160;2023-08-30T09:46:45;8.63;;;5.60;;
5704;SDS011;2877;48.238;11.160;2023-08-30T09:49:12;6.40;;;5.53;;
5704;SDS011;2877;48.238;11.160;2023-08-30T09:51:38;6.40;;;5.17;;
5704;SDS011;2877;48.238;11.160;2023-08-30T09:54:13;5.57;;;5.07;;
5704;SDS011;2877;48.238;11.160;2023-08-30T09:56:44;6.53;;;4.93;;
5704;SDS011;2877;48.238;11.160;2023-08-30T09:59:14;5.40;;;5.00;;
5704;SDS011;2877;48.238;11.160;2023-08-30T10:01:40;5.40;;;4.90;;
5704;SDS011;2877;48.238;11.160;2023-08-30T10:04:07;5.10;;;4.70;;
5704;SDS011;2877;48.238;11.160;2023-08-30T10:06:36;6.70;;;4.87;;
5704;SDS011;2877;48.238;11.160;2023-08-30T10:09:02;6.40;;;4.47;;
5704;SDS011;2877;48.238;11.160;2023-08-30T10:11:29;5.17;;;3.90;;
5704;SDS011;2877;48.238;11.160;2023-08-30T10:13:59;4.57;;;4.17;;
5704;SDS011;2877;48.238;11.160;2023-08-30T10:16:26;6.43;;;4.43;;
5704;SDS011;2877;48.238;11.160;2023-08-30T10:18:55;4.73;;;4.27;;
5704;SDS011;2877;48.238;11.160;2023-08-30T10:21:30;4.67;;;4.30;;
5704;SDS011;2877;48.238;11.160;2023-08-30T10:23:56;5.33;;;4.30;;
5704;SDS011;2877;48.238;11.160;2023-08-30T10:26:24;4.70;;;4.30;;
5704;SDS011;2877;48.238;11.160;2023-08-30T10:28:52;4.20;;;3.90;;
5704;SDS011;2877;48.238;11.160;2023-08-30T10:31:19;4.90;;;4.50;;
5704;SDS011;2877;48.238;11.160;2023-08-30T10:33:54;4.07;;;3.40;;
5704;SDS011;2877;48.238;11.160;2023-08-30T10:36:20;3.83;;;3.53;;
5704;SDS011;2877;48.238;11.160;2023-08-30T10:38:50;3.60;;;3.30;;
5704;SDS011;2877;48.238;11.160;2023-08-30T10:41:20;3.90;;;3.50;;
5704;SDS011;2877;48.238;11.160;2023-08-30T10:43:51;3.43;;;2.87;;
5704;SDS011;2877;48.238;11.160;2023-08-30T10:46:29;3.13;;;2.83;;
5704;SDS011;2877;48.238;11.160;2023-08-30T10:48:56;5.90;;;2.47;;
5704;SDS011;2877;48.238;11.160;2023-08-30T10:51:37;2.47;;;2.27;;
5704;SDS011;2877;48.238;11.160;2023-08-30T10:54:13;5.33;;;2.23;;
5704;SDS011;2877;48.238;11.160;2023-08-30T10:59:20;2.07;;;1.97;;
5704;SDS011;2877;48.238;11.160;2023-08-30T11:01:47;1.50;;;1.40;;
5704;SDS011;2877;48.238;11.160;2023-08-30T11:04:14;1.50;;;1.40;;
5704;SDS011;2877;48.238;11.160;2023-08-30T11:06:45;1.73;;;1.63;;
5704;SDS011;2877;48.238;11.160;2023-08-30T11:09:29;1.70;;;1.60;;
5704;SDS011;2877;48.238;11.160;2023-08-30T11:11:55;1.60;;;1.50;;
5704;SDS011;2877;48.238;11.160;2023-08-30T11:14:21;2.03;;;1.47;;
5704;SDS011;2877;48.238;11.160;2023-08-30T11:16:47;1.37;;;1.27;;
5704;SDS011;2877;48.238;11.160;2023-08-30T11:19:12;4.13;;;1.70;;
5704;SDS011;2877;48.238;11.160;2023-08-30T11:21:39;2.60;;;1.50;;
5704;SDS011;2877;48.238;11.160;2023-08-30T11:24:07;1.13;;;1.13;;
5704;SDS011;2877;48.238;11.160;2023-08-30T11:26:33;1.67;;;1.57;;
5704;SDS011;2877;48.238;11.160;2023-08-30T11:29:08;2.20;;;1.53;;
5704;SDS011;2877;48.238;11.160;2023-08-30T11:31:34;2.50;;;2.30;;
5704;SDS011;2877;48.238;11.160;2023-08-30T11:33:59;2.40;;;2.20;;
5704;SDS011;2877;48.238;11.160;2023-08-30T11:36:26;2.93;;;2.73;;
5704;SDS011;2877;48.238;11.160;2023-08-30T11:38:56;4.63;;;3.83;;
5704;SDS011;2877;48.238;11.160;2023-08-30T11:41:22;3.33;;;3.13;;
5704;SDS011;2877;48.238;11.160;2023-08-30T11:43:49;3.13;;;2.93;;
5704;SDS011;2877;48.238;11.160;2023-08-30T11:46:16;3.20;;;3.00;;
5704;SDS011;2877;48.238;11.160;2023-08-30T11:48:42;3.57;;;3.30;;
5704;SDS011;2877;48.238;11.160;2023-08-30T11:51:08;5.57;;;3.43;;
5704;SDS011;2877;48.238;11.160;2023-08-30T11:53:35;3.07;;;2.87;;
5704;SDS011;2877;48.238;11.160;2023-08-30T11:56:02;4.10;;;3.10;;
5704;SDS011;2877;48.238;11.160;2023-08-30T11:58:27;2.50;;;2.30;;
5704;SDS011;2877;48.238;11.160;2023-08-30T12:00:57;2.73;;;2.53;;
5704;SDS011;2877;48.238;11.160;2023-08-30T12:03:23;3.13;;;2.83;;
5704;SDS011;2877;48.238;11.160;2023-08-30T12:05:50;2.50;;;2.40;;
5704;SDS011;2877;48.238;11.160;2023-08-30T12:08:26;3.20;;;2.83;;
5704;SDS011;2877;48.238;11.160;2023-08-30T12:10:53;2.90;;;2.67;;
5704;SDS011;2877;48.238;11.160;2023-08-30T12:15:52;3.80;;;3.00;;
5704;SDS011;2877;48.238;11.160;2023-08-30T12:18:25;2.93;;;2.73;;
5704;SDS011;2877;48.238;11.160;2023-08-30T12:21:00;2.97;;;2.77;;
5704;SDS011;2877;48.238;11.160;2023-08-30T12:23:31;2.97;;;2.80;;
5704;SDS011;2877;48.238;11.160;2023-08-30T12:28:34;2.90;;;2.70;;
5704;SDS011;2877;48.238;11.160;2023-08-30T12:31:00;2.37;;;2.27;;
5704;SDS011;2877;48.238;11.160;2023-08-30T12:33:27;2.50;;;2.37;;
5704;SDS011;2877;48.238;11.160;2023-08-30T12:35:55;2.20;;;2.10;;
5704;SDS011;2877;48.238;11.160;2023-08-30T12:38:22;2.20;;;2.03;;
5704;SDS011;2877;48.238;11.160;2023-08-30T12:40:48;2.60;;;2.40;;
5704;SDS011;2877;48.238;11.160;2023-08-30T12:43:16;3.33;;;2.50;;
5704;SDS011;2877;48.238;11.160;2023-08-30T12:45:42;2.40;;;2.20;;
5704;SDS011;2877;48.238;11.160;2023-08-30T12:48:09;1.93;;;1.83;;
5704;SDS011;2877;48.238;11.160;2023-08-30T12:50:40;1.93;;;1.83;;
5704;SDS011;2877;48.238;11.160;2023-08-30T12:53:06;2.20;;;2.00;;
5704;SDS011;2877;48.238;11.160;2023-08-30T12:55:32;1.80;;;1.70;;
5704;SDS011;2877;48.238;11.160;2023-08-30T12:57:59;1.70;;;1.60;;
5704;SDS011;2877;48.238;11.160;2023-08-30T13:00:25;1.60;;;1.50;;
5704;SDS011;2877;48.238;11.160;2023-08-30T13:02:51;7.87;;;2.20;;
5704;SDS011;2877;48.238;11.160;2023-08-30T13:05:16;2.40;;;1.27;;
5704;SDS011;2877;48.238;11.160;2023-08-30T13:07:42;2.23;;;2.03;;
5704;SDS011;2877;48.238;11.160;2023-08-30T13:10:08;1.50;;;1.40;;
5704;SDS011;2877;48.238;11.160;2023-08-30T13:12:34;1.20;;;1.10;;
5704;SDS011;2877;48.238;11.160;2023-08-30T13:15:00;1.30;;;1.20;;
5704;SDS011;2877;48.238;11.160;2023-08-30T13:17:26;1.20;;;1.20;;
5704;SDS011;2877;48.238;11.160;2023-08-30T13:19:52;1.73;;;1.40;;
5704;SDS011;2877;48.238;11.160;2023-08-30T13:22:17;2.40;;;1.37;;
5704;SDS011;2877;48.238;11.160;2023-08-30T13:24:43;1.60;;;1.50;;
5704;SDS011;2877;48.238;11.160;2023-08-30T13:27:09;1.40;;;1.13;;
5704;SDS011;2877;48.238;11.160;2023-08-30T13:29:35;1.20;;;1.10;;
5704;SDS011;2877;48.238;11.160;2023-08-30T13:32:01;1.60;;;1.50;;
5704;SDS011;2877;48.238;11.160;2023-08-30T13:34:26;1.20;;;1.10;;
5704;SDS011;2877;48.238;11.160;2023-08-30T13:36:52;1.40;;;1.30;;
5704;SDS011;2877;48.238;11.160;2023-08-30T13:39:17;1.10;;;1.00;;
5704;SDS011;2877;48.238;11.160;2023-08-30T13:41:45;3.07;;;1.13;;
5704;SDS011;2877;48.238;11.160;2023-08-30T13:44:11;1.20;;;1.10;;
5704;SDS011;2877;48.238;11.160;2023-08-30T13:46:37;2.10;;;1.20;;
5704;SDS011;2877;48.238;11.160;2023-08-30T13:49:03;1.10;;;1.10;;
5704;SDS011;2877;48.238;11.160;2023-08-30T13:51:28;3.67;;;1.00;;
5704;SDS011;2877;48.238;11.160;2023-08-30T13:53:54;1.50;;;1.10;;
5704;SDS011;2877;48.238;11.160;2023-08-30T13:56:19;2.03;;;1.20;;
5704;SDS011;2877;48.238;11.160;2023-08-30T13:58:45;1.67;;;1.57;;
5704;SDS011;2877;48.238;11.160;2023-08-30T14:01:11;1.73;;;1.47;;
5704;SDS011;2877;48.238;11.160;2023-08-30T14:03:37;1.77;;;1.67;;
5704;SDS011;2877;48.238;11.160;2023-08-30T14:06:03;1.70;;;1.60;;
5704;SDS011;2877;48.238;11.160;2023-08-30T14:08:28;1.37;;;1.30;;
5704;SDS011;2877;48.238;11.160;2023-08-30T14:10:54;2.00;;;1.80;;
5704;SDS011;2877;48.238;11.160;2023-08-30T14:13:20;1.83;;;1.73;;
5704;SDS011;2877;48.238;11.160;2023-08-30T14:15:46;2.33;;;1.60;;
5704;SDS011;2877;48.238;11.160;2023-08-30T14:18:12;3.27;;;1.60;;
5704;SDS011;2877;48.238;11.160;2023-08-30T14:20:38;1.90;;;1.80;;
5704;SDS011;2877;48.238;11.160;2023-08-30T14:23:04;2.20;;;1.70;;
5704;SDS011;2877;48.238;11.160;2023-08-30T14:25:29;2.07;;;1.97;;
5704;SDS011;2877;48.238;11.160;2023-08-30T14:27:55;3.57;;;1.67;;
5704;SDS011;2877;48.238;11.160;2023-08-30T14:30:20;1.73;;;1.63;;
5704;SDS011;2877;48.238;11.160;2023-08-30T14:32:46;2.00;;;1.90;;
5704;SDS011;2877;48.238;11.160;2023-08-30T14:35:12;6.17;;;1.70;;
5704;SDS011;2877;48.238;11.160;2023-08-30T14:37:40;1.90;;;1.80;;
5704;SDS011;2877;48.238;11.160;2023-08-30T14:40:06;1.70;;;1.60;;
5704;SDS011;2877;48.238;11.160;2023-08-30T14:42:32;2.00;;;1.60;;
5704;SDS011;2877;48.238;11.160;2023-08-30T14:44:58;1.67;;;1.57;;
5704;SDS011;2877;48.238;11.160;2023-08-30T14:47:24;1.80;;;1.70;;
5704;SDS011;2877;48.238;11.160;2023-08-30T14:49:50;1.80;;;1.70;;
5704;SDS011;2877;48.238;11.160;2023-08-30T14:55:37;2.23;;;2.10;;
5704;SDS011;2877;48.238;11.160;2023-08-30T14:58:03;1.87;;;1.77;;
5704;SDS011;2877;48.238;11.160;2023-08-30T15:00:28;3.10;;;1.70;;
5704;SDS011;2877;48.238;11.160;2023-08-30T15:02:54;1.80;;;1.70;;
5704;SDS011;2877;48.238;11.160;2023-08-30T15:05:19;1.50;;;1.40;;
5704;SDS011;2877;48.238;11.160;2023-08-30T15:07:45;2.50;;;1.40;;
5704;SDS011;2877;48.238;11.160;2023-08-30T15:10:10;2.07;;;1.50;;
5704;SDS011;2877;48.238;11.160;2023-08-30T15:12:39;3.10;;;1.60;;
5704;SDS011;2877;48.238;11.160;2023-08-30T15:15:05;2.93;;;1.50;;
5704;SDS011;2877;48.238;11.160;2023-08-30T15:17:30;2.00;;;1.90;;